createdAt,value
2024-05-09T00:00:54.001Z,10.63
2024-05-09T00:01:53.981Z,10.61
2024-05-09T00:02:53.940Z,10.59
2024-05-09T00:03:53.944Z,10.59
2024-05-09T00:04:54.020Z,10.56
2024-05-09T00:05:53.917Z,10.56
2024-05-09T00:06:53.869Z,10.56
2024-05-09T00:07:53.914Z,10.56
2024-05-09T00:08:53.850Z,10.53
2024-05-09T00:09:53.879Z,10.53
2024-05-09T00:10:54.941Z,10.53
2024-05-09T00:11:53.937Z,10.49
2024-05-09T00:12:53.809Z,10.48
2024-05-09T00:13:53.874Z,10.48
2024-05-09T00:14:53.764Z,10.48
2024-05-09T00:15:53.798Z,10.44
2024-05-09T00:16:53.797Z,10.42
2024-05-09T00:17:53.934Z,10.44
2024-05-09T00:18:54.081Z,10.44
2024-05-09T00:19:53.759Z,10.44
2024-05-09T00:20:53.781Z,10.44
2024-05-09T00:21:53.706Z,10.46
2024-05-09T00:22:53.728Z,10.46
2024-05-09T00:23:53.692Z,10.44
2024-05-09T00:24:53.655Z,10.42
2024-05-09T00:25:53.705Z,10.42
2024-05-09T00:26:53.641Z,10.41
2024-05-09T00:27:53.628Z,10.40
2024-05-09T00:28:53.653Z,10.41
2024-05-09T00:29:53.626Z,10.41
2024-05-09T00:30:53.610Z,10.40
2024-05-09T00:31:53.650Z,10.41
2024-05-09T00:32:53.678Z,10.40
2024-05-09T00:33:53.663Z,10.40
2024-05-09T00:34:53.606Z,10.38
2024-05-09T00:35:53.563Z,10.38
2024-05-09T00:36:53.542Z,10.35
2024-05-09T00:37:53.590Z,10.34
2024-05-09T00:38:53.565Z,10.31
2024-05-09T00:39:53.513Z,10.30
2024-05-09T00:40:53.677Z,10.26
2024-05-09T00:41:53.497Z,10.23
2024-05-09T00:42:53.448Z,10.22
2024-05-09T00:43:53.497Z,10.22
2024-05-09T00:44:53.437Z,10.19
2024-05-09T00:45:53.434Z,10.19
2024-05-09T00:46:53.511Z,10.19
2024-05-09T00:47:53.574Z,10.19
2024-05-09T00:48:53.472Z,10.20
2024-05-09T00:49:53.431Z,10.22
2024-05-09T00:50:53.419Z,10.23
2024-05-09T00:51:53.348Z,10.22
2024-05-09T00:52:53.394Z,10.23
2024-05-09T00:53:53.358Z,10.20
2024-05-09T00:54:53.316Z,10.19
2024-05-09T00:55:53.341Z,10.17
2024-05-09T00:56:53.366Z,10.17
2024-05-09T00:57:53.302Z,10.16
2024-05-09T00:58:53.296Z,10.13
2024-05-09T00:59:53.263Z,10.13
2024-05-09T01:00:53.439Z,10.12
2024-05-09T01:01:53.373Z,10.10
2024-05-09T01:02:53.464Z,10.07
2024-05-09T01:03:53.377Z,10.05
2024-05-09T01:04:53.481Z,10.04
2024-05-09T01:05:54.254Z,10.02
2024-05-09T01:06:53.896Z,10.01
2024-05-09T01:07:53.199Z,9.99
2024-05-09T01:08:53.203Z,9.95
2024-05-09T01:09:53.151Z,9.95
2024-05-09T01:10:53.369Z,9.95
2024-05-09T01:11:53.210Z,9.95
2024-05-09T01:12:53.142Z,9.92
2024-05-09T01:13:53.215Z,9.92
2024-05-09T01:14:53.096Z,9.91
2024-05-09T01:15:53.081Z,9.89
2024-05-09T01:16:53.122Z,9.91
2024-05-09T01:17:53.204Z,9.89
2024-05-09T01:18:53.198Z,9.87
2024-05-09T01:19:53.143Z,9.86
2024-05-09T01:20:54.186Z,9.83
2024-05-09T01:21:53.024Z,9.83
2024-05-09T01:22:53.116Z,9.82
2024-05-09T01:23:53.001Z,9.83
2024-05-09T01:24:53.030Z,9.83
2024-05-09T01:25:53.022Z,9.82
2024-05-09T01:26:52.988Z,9.82
2024-05-09T01:27:52.935Z,9.82
2024-05-09T01:28:52.986Z,9.80
2024-05-09T01:29:52.923Z,9.80
2024-05-09T01:30:52.948Z,9.82
2024-05-09T01:31:53.148Z,9.80
2024-05-09T01:32:53.088Z,9.79
2024-05-09T01:33:52.964Z,9.77
2024-05-09T01:34:52.937Z,9.76
2024-05-09T01:35:52.908Z,9.74
2024-05-09T01:36:52.864Z,9.73
2024-05-09T01:37:52.886Z,9.72
2024-05-09T01:38:52.830Z,9.72
2024-05-09T01:39:52.810Z,9.72
2024-05-09T01:40:52.819Z,9.69
2024-05-09T01:41:52.814Z,9.69
2024-05-09T01:42:53.730Z,9.73
2024-05-09T01:43:52.898Z,9.73
2024-05-09T01:44:52.782Z,9.69
2024-05-09T01:45:52.743Z,9.72
2024-05-09T01:46:52.769Z,9.68
2024-05-09T01:47:52.917Z,9.66
2024-05-09T01:48:52.809Z,9.62
2024-05-09T01:49:52.724Z,9.62
2024-05-09T01:50:52.714Z,9.61
2024-05-09T01:51:52.685Z,9.59
2024-05-09T01:52:52.696Z,9.59
2024-05-09T01:53:52.697Z,9.58
2024-05-09T01:54:52.632Z,9.56
2024-05-09T01:55:52.745Z,9.55
2024-05-09T01:56:52.614Z,9.54
2024-05-09T01:57:52.613Z,9.50
2024-05-09T01:58:52.612Z,9.48
2024-05-09T01:59:52.636Z,9.48
2024-05-09T02:00:52.651Z,9.50
2024-05-09T02:01:56.883Z,9.48
2024-05-09T02:02:53.786Z,9.51
2024-05-09T02:03:52.951Z,9.50
2024-05-09T02:04:52.645Z,9.48
2024-05-09T02:05:52.643Z,9.50
2024-05-09T02:06:53.478Z,9.48
2024-05-09T02:07:52.564Z,9.50
2024-05-09T02:08:52.484Z,9.50
2024-05-09T02:09:52.500Z,9.47
2024-05-09T02:10:52.655Z,9.48
2024-05-09T02:11:52.481Z,9.46
2024-05-09T02:12:52.442Z,9.44
2024-05-09T02:13:52.478Z,9.46
2024-05-09T02:14:52.422Z,9.44
2024-05-09T02:15:53.688Z,9.44
2024-05-09T02:16:52.455Z,9.46
2024-05-09T02:17:52.617Z,9.47
2024-05-09T02:18:52.579Z,9.46
2024-05-09T02:19:52.412Z,9.47
2024-05-09T02:20:52.401Z,9.47
2024-05-09T02:21:52.372Z,9.46
2024-05-09T02:22:52.367Z,9.46
2024-05-09T02:23:52.330Z,9.46
2024-05-09T02:24:52.323Z,9.46
2024-05-09T02:25:52.337Z,9.46
2024-05-09T02:26:52.283Z,9.46
2024-05-09T02:27:52.320Z,9.47
2024-05-09T02:28:52.316Z,9.50
2024-05-09T02:29:52.241Z,9.50
2024-05-09T02:30:53.382Z,9.51
2024-05-09T02:31:52.316Z,9.51
2024-05-09T02:32:52.416Z,9.51
2024-05-09T02:33:52.388Z,9.50
2024-05-09T02:34:52.216Z,9.48
2024-05-09T02:35:52.219Z,9.46
2024-05-09T02:36:52.163Z,9.44
2024-05-09T02:37:52.181Z,9.43
2024-05-09T02:38:52.165Z,9.41
2024-05-09T02:39:52.200Z,9.40
2024-05-09T02:40:52.153Z,9.39
2024-05-09T02:41:52.119Z,9.40
2024-05-09T02:42:53.512Z,9.40
2024-05-09T02:43:52.125Z,9.41
2024-05-09T02:44:52.072Z,9.41
2024-05-09T02:45:53.890Z,9.40
2024-05-09T02:46:52.120Z,9.39
2024-05-09T02:47:52.103Z,9.37
2024-05-09T02:48:52.174Z,9.39
2024-05-09T02:49:52.101Z,9.36
2024-05-09T02:50:52.157Z,9.34
2024-05-09T02:51:52.027Z,9.32
2024-05-09T02:52:52.007Z,9.34
2024-05-09T02:53:51.990Z,9.31
2024-05-09T02:54:51.986Z,9.32
2024-05-09T02:55:52.092Z,9.29
2024-05-09T02:56:51.993Z,9.31
2024-05-09T02:57:51.939Z,9.32
2024-05-09T02:58:51.917Z,9.31
2024-05-09T02:59:51.954Z,9.32
2024-05-09T03:00:51.926Z,9.31
2024-05-09T03:01:51.968Z,9.31
2024-05-09T03:02:51.973Z,9.34
2024-05-09T03:03:52.052Z,9.34
2024-05-09T03:04:51.947Z,9.37
2024-05-09T03:05:51.967Z,9.39
2024-05-09T03:06:51.809Z,9.40
2024-05-09T03:07:51.831Z,9.43
2024-05-09T03:08:51.802Z,9.44
2024-05-09T03:09:51.796Z,9.47
2024-05-09T03:10:51.823Z,9.48
2024-05-09T03:11:51.894Z,9.46
2024-05-09T03:12:51.775Z,9.47
2024-05-09T03:13:51.752Z,9.46
2024-05-09T03:14:51.749Z,9.46
2024-05-09T03:15:51.736Z,9.44
2024-05-09T03:16:51.788Z,9.43
2024-05-09T03:17:51.865Z,9.40
2024-05-09T03:18:51.810Z,9.39
2024-05-09T03:19:51.671Z,9.36
2024-05-09T03:20:51.700Z,9.31
2024-05-09T03:21:51.640Z,9.29
2024-05-09T03:22:55.577Z,9.29
2024-05-09T03:23:52.714Z,9.28
2024-05-09T03:24:51.633Z,9.29
2024-05-09T03:25:51.634Z,9.31
2024-05-09T03:26:51.623Z,9.32
2024-05-09T03:27:51.587Z,9.36
2024-05-09T03:28:51.641Z,9.37
2024-05-09T03:29:51.556Z,9.39
2024-05-09T03:30:51.575Z,9.41
2024-05-09T03:31:51.627Z,9.40
2024-05-09T03:32:51.626Z,9.43
2024-05-09T03:33:51.729Z,9.43
2024-05-09T03:34:51.553Z,9.46
2024-05-09T03:35:51.491Z,9.46
2024-05-09T03:36:51.505Z,9.46
2024-05-09T03:37:51.496Z,9.46
2024-05-09T03:38:51.495Z,9.46
2024-05-09T03:39:51.469Z,9.46
2024-05-09T03:40:51.751Z,9.47
2024-05-09T03:41:51.412Z,9.47
2024-05-09T03:42:51.442Z,9.47
2024-05-09T03:43:51.479Z,9.47
2024-05-09T03:44:51.394Z,9.47
2024-05-09T03:45:51.408Z,9.48
2024-05-09T03:46:51.496Z,9.48
2024-05-09T03:47:51.723Z,9.48
2024-05-09T03:48:51.566Z,9.51
2024-05-09T03:49:51.415Z,9.50
2024-05-09T03:50:51.889Z,9.47
2024-05-09T03:51:51.312Z,9.46
2024-05-09T03:52:51.405Z,9.44
2024-05-09T03:53:51.321Z,9.40
2024-05-09T03:54:51.333Z,9.37
2024-05-09T03:55:51.338Z,9.37
2024-05-09T03:56:51.312Z,9.37
2024-05-09T03:57:51.299Z,9.36
2024-05-09T03:58:51.373Z,9.37
2024-05-09T03:59:51.331Z,9.36
2024-05-09T04:00:51.281Z,9.36
2024-05-09T04:01:51.276Z,9.34
2024-05-09T04:02:51.337Z,9.34
2024-05-09T04:03:51.451Z,9.37
2024-05-09T04:04:51.318Z,9.37
2024-05-09T04:05:51.267Z,9.39
2024-05-09T04:06:51.188Z,9.40
2024-05-09T04:07:51.190Z,9.39
2024-05-09T04:08:51.139Z,9.39
2024-05-09T04:09:51.126Z,9.36
2024-05-09T04:10:51.163Z,9.36
2024-05-09T04:11:51.164Z,9.34
2024-05-09T04:12:51.087Z,9.36
2024-05-09T04:13:51.116Z,9.34
2024-05-09T04:14:51.071Z,9.32
2024-05-09T04:15:52.040Z,9.32
2024-05-09T04:16:51.164Z,9.29
2024-05-09T04:17:51.270Z,9.29
2024-05-09T04:18:51.089Z,9.26
2024-05-09T04:19:51.080Z,9.25
2024-05-09T04:20:51.020Z,9.23
2024-05-09T04:21:50.965Z,9.23
2024-05-09T04:22:51.041Z,9.23
2024-05-09T04:23:50.971Z,9.23
2024-05-09T04:24:50.982Z,9.23
2024-05-09T04:25:52.702Z,9.26
2024-05-09T04:26:50.946Z,9.28
2024-05-09T04:27:50.906Z,9.31
2024-05-09T04:28:50.958Z,9.32
2024-05-09T04:29:50.933Z,9.37
2024-05-09T04:30:50.902Z,9.39
2024-05-09T04:31:50.896Z,9.41
2024-05-09T04:32:51.060Z,9.44
2024-05-09T04:33:51.014Z,9.44
2024-05-09T04:34:50.903Z,9.46
2024-05-09T04:35:50.855Z,9.46
2024-05-09T04:36:50.817Z,9.48
2024-05-09T04:37:50.842Z,9.54
2024-05-09T04:38:50.795Z,9.55
2024-05-09T04:39:50.785Z,9.55
2024-05-09T04:40:50.807Z,9.59
2024-05-09T04:41:50.783Z,9.62
2024-05-09T04:42:50.754Z,9.64
2024-05-09T04:43:50.782Z,9.65
2024-05-09T04:44:50.710Z,9.65
2024-05-09T04:45:50.757Z,9.62
2024-05-09T04:46:50.775Z,9.62
2024-05-09T04:47:50.900Z,9.61
2024-05-09T04:48:50.815Z,9.61
2024-05-09T04:49:50.747Z,9.59
2024-05-09T04:50:50.669Z,9.59
2024-05-09T04:51:50.636Z,9.61
2024-05-09T04:52:50.637Z,9.61
2024-05-09T04:53:50.681Z,9.62
2024-05-09T04:54:50.631Z,9.62
2024-05-09T04:55:51.639Z,9.64
2024-05-09T04:56:50.569Z,9.65
2024-05-09T04:57:50.572Z,9.66
2024-05-09T04:58:50.582Z,9.66
2024-05-09T04:59:51.077Z,9.68
2024-05-09T05:00:50.551Z,9.72
2024-05-09T05:01:50.601Z,9.72
2024-05-09T05:02:50.609Z,9.73
2024-05-09T05:03:50.683Z,9.77
2024-05-09T05:04:50.644Z,9.79
2024-05-09T05:05:50.559Z,9.83
2024-05-09T05:06:50.473Z,9.84
2024-05-09T05:07:50.512Z,9.89
2024-05-09T05:08:50.454Z,9.92
2024-05-09T05:09:50.430Z,9.94
2024-05-09T05:10:50.702Z,9.95
2024-05-09T05:11:50.531Z,9.97
2024-05-09T05:12:51.365Z,9.98
2024-05-09T05:13:50.424Z,10.01
2024-05-09T05:14:50.387Z,10.02
2024-05-09T05:15:51.432Z,10.05
2024-05-09T05:16:50.451Z,10.05
2024-05-09T05:17:50.523Z,10.09
2024-05-09T05:18:50.530Z,10.10
2024-05-09T05:19:50.459Z,10.15
2024-05-09T05:20:50.385Z,10.16
2024-05-09T05:21:50.302Z,10.17
2024-05-09T05:22:50.384Z,10.20
2024-05-09T05:23:50.263Z,10.25
2024-05-09T05:24:50.259Z,10.28
2024-05-09T05:25:50.466Z,10.31
2024-05-09T05:26:50.247Z,10.34
2024-05-09T05:27:50.255Z,10.35
2024-05-09T05:28:50.285Z,10.41
2024-05-09T05:29:50.235Z,10.41
2024-05-09T05:30:50.367Z,10.48
2024-05-09T05:31:50.287Z,10.49
2024-05-09T05:32:50.813Z,10.54
2024-05-09T05:33:50.264Z,10.57
2024-05-09T05:34:50.228Z,10.61
2024-05-09T05:35:50.148Z,10.67
2024-05-09T05:36:50.190Z,10.69
2024-05-09T05:37:50.191Z,10.72
2024-05-09T05:38:50.218Z,10.75
2024-05-09T05:39:50.098Z,10.79
2024-05-09T05:40:50.123Z,10.81
2024-05-09T05:41:50.090Z,10.84
2024-05-09T05:42:50.090Z,10.89
2024-05-09T05:43:50.131Z,10.92
2024-05-09T05:44:50.078Z,10.96
2024-05-09T05:45:50.739Z,11.00
2024-05-09T05:46:50.073Z,11.05
2024-05-09T05:47:50.225Z,11.10
2024-05-09T05:48:50.105Z,11.12
2024-05-09T05:49:50.141Z,11.17
2024-05-09T05:50:50.026Z,11.19
2024-05-09T05:51:49.957Z,11.25
2024-05-09T05:52:50.015Z,11.27
2024-05-09T05:53:50.005Z,11.32
2024-05-09T05:54:49.946Z,11.35
2024-05-09T05:55:50.700Z,11.40
2024-05-09T05:56:49.905Z,11.43
2024-05-09T05:57:49.893Z,11.45
2024-05-09T05:58:49.943Z,11.51
2024-05-09T05:59:50.796Z,11.54
2024-05-09T06:00:51.315Z,11.57
2024-05-09T06:01:49.878Z,11.62
2024-05-09T06:02:50.001Z,11.65
2024-05-09T06:03:49.909Z,11.70
2024-05-09T06:04:51.516Z,11.73
2024-05-09T06:05:49.843Z,11.78
2024-05-09T06:06:49.793Z,11.83
2024-05-09T06:07:49.795Z,11.86
2024-05-09T06:08:49.892Z,11.91
2024-05-09T06:09:50.538Z,11.95
2024-05-09T06:10:51.696Z,11.97
2024-05-09T06:11:49.809Z,12.00
2024-05-09T06:12:49.724Z,12.03
2024-05-09T06:13:50.324Z,12.06
2024-05-09T06:14:49.750Z,12.09
2024-05-09T06:15:49.686Z,12.12
2024-05-09T06:16:49.693Z,12.15
2024-05-09T06:17:49.821Z,12.20
2024-05-09T06:18:49.890Z,12.20
2024-05-09T06:19:49.809Z,12.22
2024-05-09T06:20:49.926Z,12.28
2024-05-09T06:21:49.645Z,12.31
2024-05-09T06:22:49.618Z,12.35
2024-05-09T06:23:49.586Z,12.39
2024-05-09T06:24:49.611Z,12.43
2024-05-09T06:25:49.637Z,12.49
2024-05-09T06:26:49.557Z,12.53
2024-05-09T06:27:49.556Z,12.57
2024-05-09T06:28:49.604Z,12.61
2024-05-09T06:29:49.554Z,12.65
2024-05-09T06:30:53.880Z,12.67
2024-05-09T06:31:49.518Z,12.70
2024-05-09T06:32:49.640Z,12.72
2024-05-09T06:33:49.680Z,12.76
2024-05-09T06:34:49.612Z,12.78
2024-05-09T06:35:49.544Z,12.82
2024-05-09T06:36:49.473Z,12.85
2024-05-09T06:37:49.478Z,12.87
2024-05-09T06:38:49.779Z,12.94
2024-05-09T06:39:49.426Z,12.97
2024-05-09T06:40:49.562Z,13.01
2024-05-09T06:41:49.404Z,13.04
2024-05-09T06:42:49.391Z,13.08
2024-05-09T06:43:49.438Z,13.12
2024-05-09T06:44:49.407Z,13.15
2024-05-09T06:45:50.536Z,13.18
2024-05-09T06:46:49.419Z,13.22
2024-05-09T06:47:49.605Z,13.25
2024-05-09T06:48:49.761Z,13.27
2024-05-09T06:49:49.398Z,13.30
2024-05-09T06:53:13.125Z,13.42
2024-05-09T06:54:11.303Z,13.44
2024-05-09T06:55:11.290Z,13.47
2024-05-09T06:56:11.275Z,13.50
2024-05-09T06:57:11.208Z,13.54
2024-05-09T06:58:11.559Z,13.59
2024-05-09T06:59:11.296Z,13.62
2024-05-09T07:00:15.673Z,13.67
2024-05-09T07:01:12.266Z,13.72
2024-05-09T07:02:11.287Z,13.75
2024-05-09T07:03:12.742Z,13.79
2024-05-09T07:04:11.445Z,13.86
2024-05-09T07:05:11.263Z,13.87
2024-05-09T07:06:11.208Z,13.90
2024-05-09T07:07:11.181Z,13.90
2024-05-09T07:08:11.121Z,13.95
2024-05-09T07:09:12.078Z,13.97
2024-05-09T07:10:17.939Z,14.00
2024-05-09T07:11:12.132Z,14.04
2024-05-09T07:12:11.138Z,14.07
2024-05-09T07:13:11.080Z,14.10
2024-05-09T07:14:11.110Z,14.12
2024-05-09T07:15:11.028Z,14.17
2024-05-09T07:16:11.029Z,14.23
2024-05-09T07:17:11.071Z,14.26
2024-05-09T07:18:11.346Z,14.30
2024-05-09T07:19:11.406Z,14.32
2024-05-09T07:20:16.233Z,14.35
2024-05-09T07:21:12.070Z,14.36
2024-05-09T07:22:10.941Z,14.37
2024-05-09T07:23:11.303Z,14.36
2024-05-09T07:24:10.947Z,14.35
2024-05-09T07:25:10.919Z,14.33
2024-05-09T07:26:10.934Z,14.33
2024-05-09T07:27:10.889Z,14.35
2024-05-09T07:28:10.929Z,14.37
2024-05-09T07:29:10.880Z,14.37
2024-05-09T07:30:13.625Z,14.40
2024-05-09T07:31:12.816Z,14.40
2024-05-09T07:32:10.898Z,14.41
2024-05-09T07:33:11.018Z,14.43
2024-05-09T07:34:10.866Z,14.45
2024-05-09T07:35:10.910Z,14.51
2024-05-09T07:36:10.800Z,14.54
2024-05-09T07:37:10.780Z,14.60
2024-05-09T07:38:10.851Z,14.63
2024-05-09T07:39:10.769Z,14.66
2024-05-09T07:40:17.678Z,14.70
2024-05-09T07:41:11.808Z,14.73
2024-05-09T07:42:10.729Z,14.77
2024-05-09T07:43:10.718Z,14.81
2024-05-09T07:44:10.730Z,14.82
2024-05-09T07:45:29.668Z,14.86
2024-05-09T07:47:14.035Z,14.89
2024-05-09T07:48:27.600Z,14.94
2024-05-09T07:49:44.958Z,15.00
2024-05-09T07:50:54.409Z,15.04
2024-05-09T07:53:27.181Z,15.17
2024-05-09T07:53:37.158Z,15.18
2024-05-09T07:54:11.791Z,15.21
2024-05-09T07:55:10.712Z,15.25
2024-05-09T07:56:11.962Z,15.28
2024-05-09T07:57:10.619Z,15.31
2024-05-09T07:58:10.597Z,15.36
2024-05-09T07:59:10.538Z,15.39
2024-05-09T08:00:14.332Z,15.43
2024-05-09T08:01:10.761Z,15.51
2024-05-09T08:02:10.686Z,15.54
2024-05-09T08:03:10.606Z,15.58
2024-05-09T08:04:10.607Z,15.64
2024-05-09T08:05:10.705Z,15.68
2024-05-09T08:06:10.480Z,15.72
2024-05-09T08:07:10.554Z,15.76
2024-05-09T08:08:11.436Z,15.79
2024-05-09T08:09:13.919Z,15.83
2024-05-09T08:10:15.322Z,15.91
2024-05-09T08:11:11.463Z,15.95
2024-05-09T08:12:10.396Z,16.05
2024-05-09T08:13:10.504Z,16.12
2024-05-09T08:14:10.379Z,16.20
2024-05-09T08:15:10.415Z,16.28
2024-05-09T08:17:10.351Z,16.36
2024-05-09T08:18:10.507Z,16.41
2024-05-09T08:19:10.465Z,16.43
2024-05-09T08:20:11.433Z,16.46
2024-05-09T08:21:10.281Z,16.47
2024-05-09T08:22:10.406Z,16.49
2024-05-09T08:23:10.274Z,16.50
2024-05-09T08:24:10.285Z,16.57
2024-05-09T08:25:11.881Z,16.58
2024-05-09T08:26:10.234Z,16.61
2024-05-09T08:27:10.227Z,16.66
2024-05-09T08:28:10.397Z,16.68
2024-05-09T08:29:10.261Z,16.71
2024-05-09T08:30:15.406Z,16.72
2024-05-09T08:31:11.236Z,16.71
2024-05-09T08:32:10.207Z,16.74
2024-05-09T08:33:10.223Z,16.75
2024-05-09T08:34:10.397Z,16.76
2024-05-09T08:35:10.131Z,16.79
2024-05-09T08:36:10.148Z,16.84
2024-05-09T08:37:15.689Z,16.87
2024-05-09T08:38:11.178Z,16.90
2024-05-09T08:39:10.088Z,16.93
2024-05-09T08:40:16.941Z,16.94
2024-05-09T08:41:11.118Z,16.97
2024-05-09T08:42:10.039Z,17.02
2024-05-09T08:43:12.043Z,17.09
2024-05-09T08:44:10.045Z,17.15
2024-05-09T08:45:10.031Z,17.24
2024-05-09T08:46:10.032Z,17.33
2024-05-09T08:47:10.373Z,17.39
2024-05-09T08:48:10.194Z,17.48
2024-05-09T08:49:10.164Z,17.54
2024-05-09T08:50:20.213Z,17.63
2024-05-09T08:51:11.004Z,17.67
2024-05-09T08:52:10.134Z,17.74
2024-05-09T08:53:09.925Z,17.79
2024-05-09T08:54:09.931Z,17.82
2024-05-09T08:55:10.012Z,17.85
2024-05-09T08:56:09.891Z,17.87
2024-05-09T08:57:09.898Z,17.89
2024-05-09T08:58:10.099Z,17.83
2024-05-09T08:59:09.875Z,17.80
2024-05-09T09:00:14.856Z,17.80
2024-05-09T09:01:10.910Z,17.83
2024-05-09T09:02:09.939Z,17.87
2024-05-09T09:03:09.916Z,17.90
2024-05-09T09:04:09.935Z,17.95
2024-05-09T09:05:09.979Z,18.00
2024-05-09T09:06:09.776Z,18.04
2024-05-09T09:07:09.862Z,18.10
2024-05-09T09:08:09.771Z,18.13
2024-05-09T09:09:09.779Z,18.16
2024-05-09T09:10:12.983Z,18.18
2024-05-09T09:11:10.775Z,18.16
2024-05-09T09:12:10.700Z,18.18
2024-05-09T09:13:10.108Z,18.20
2024-05-09T09:14:09.727Z,18.25
2024-05-09T09:15:09.710Z,18.26
2024-05-09T09:16:09.812Z,18.29
2024-05-09T09:17:09.758Z,18.35
2024-05-09T09:18:12.194Z,18.33
2024-05-09T09:19:09.793Z,18.33
2024-05-09T09:20:14.340Z,18.35
2024-05-09T09:21:10.694Z,18.38
2024-05-09T09:22:09.746Z,18.45
2024-05-09T09:23:09.643Z,18.49
2024-05-09T09:24:10.089Z,18.50
2024-05-09T09:25:09.767Z,18.53
2024-05-09T09:26:09.655Z,18.55
2024-05-09T09:27:09.565Z,18.58
2024-05-09T09:28:10.721Z,18.60
2024-05-09T09:29:09.619Z,18.63
2024-05-09T09:30:22.875Z,18.66
2024-05-09T09:31:10.530Z,18.66
2024-05-09T09:32:09.492Z,18.65
2024-05-09T09:33:09.896Z,18.63
2024-05-09T09:34:09.728Z,18.66
2024-05-09T09:35:09.508Z,18.71
2024-05-09T09:36:11.585Z,18.75
2024-05-09T09:37:09.711Z,18.78
2024-05-09T09:38:09.446Z,18.74
2024-05-09T09:39:09.443Z,18.73
2024-05-09T09:40:12.810Z,18.73
2024-05-09T09:41:09.471Z,18.73
2024-05-09T09:42:09.382Z,18.75
2024-05-09T09:43:09.550Z,18.77
2024-05-09T09:44:09.402Z,18.83
2024-05-09T09:45:09.369Z,18.89
2024-05-09T09:46:12.440Z,18.95
2024-05-09T09:47:09.352Z,19.04
2024-05-09T09:48:09.459Z,19.09
2024-05-09T09:49:09.517Z,19.15
2024-05-09T09:50:12.128Z,19.21
2024-05-09T09:51:10.283Z,19.29
2024-05-09T09:52:11.141Z,19.37
2024-05-09T09:53:09.291Z,19.45
2024-05-09T09:54:09.291Z,19.48
2024-05-09T09:55:09.363Z,19.52
2024-05-09T09:56:09.357Z,19.52
2024-05-09T09:57:09.241Z,19.52
2024-05-09T09:58:11.987Z,19.56
2024-05-09T09:59:09.188Z,19.62
2024-05-09T10:00:11.906Z,19.64
2024-05-09T10:01:10.283Z,19.70
2024-05-09T10:02:09.578Z,19.76
2024-05-09T10:03:09.254Z,19.84
2024-05-09T10:04:09.285Z,19.91
2024-05-09T10:05:09.198Z,19.99
2024-05-09T10:06:09.367Z,20.03
2024-05-09T10:07:09.192Z,20.07
2024-05-09T10:08:09.138Z,20.16
2024-05-09T10:09:09.110Z,20.22
2024-05-09T10:10:11.130Z,20.28
2024-05-09T10:11:09.171Z,20.37
2024-05-09T10:12:09.594Z,20.40
2024-05-09T10:13:09.262Z,20.44
2024-05-09T10:14:09.070Z,20.48
2024-05-09T10:15:09.197Z,20.41
2024-05-09T10:16:09.268Z,20.36
2024-05-09T10:17:09.048Z,20.28
2024-05-09T10:18:09.260Z,20.22
2024-05-09T10:19:09.075Z,20.16
2024-05-09T10:20:14.919Z,20.13
2024-05-09T10:21:10.026Z,20.07
2024-05-09T10:22:09.162Z,20.03
2024-05-09T10:23:08.931Z,19.99
2024-05-09T10:24:08.918Z,19.94
2024-05-09T10:25:09.044Z,19.88
2024-05-09T10:26:08.957Z,19.84
2024-05-09T10:27:08.940Z,19.79
2024-05-09T10:28:09.059Z,19.74
2024-05-09T10:29:08.873Z,19.69
2024-05-09T10:30:14.342Z,19.64
2024-05-09T10:31:09.993Z,19.58
2024-05-09T10:32:08.829Z,19.55
2024-05-09T10:33:08.961Z,19.49
2024-05-09T10:34:09.046Z,19.44
2024-05-09T10:35:08.888Z,19.41
2024-05-09T10:36:08.814Z,19.39
2024-05-09T10:37:08.813Z,19.36
2024-05-09T10:38:09.743Z,19.33
2024-05-09T10:39:08.814Z,19.29
2024-05-09T10:40:14.260Z,19.26
2024-05-09T10:41:09.748Z,19.24
2024-05-09T10:42:08.734Z,19.24
2024-05-09T10:43:08.983Z,19.21
2024-05-09T10:44:08.700Z,19.15
2024-05-09T10:45:08.731Z,19.11
2024-05-09T10:46:08.943Z,19.09
2024-05-09T10:47:08.746Z,19.02
2024-05-09T10:48:08.794Z,19.00
2024-05-09T10:49:08.871Z,19.02
2024-05-09T10:50:18.245Z,19.04
2024-05-09T10:51:09.693Z,19.07
2024-05-09T10:52:08.900Z,19.11
2024-05-09T10:53:08.603Z,19.11
2024-05-09T10:54:09.038Z,19.15
2024-05-09T10:55:08.648Z,19.22
2024-05-09T10:56:08.592Z,19.30
2024-05-09T10:57:08.593Z,19.44
2024-05-09T10:58:08.739Z,19.49
2024-05-09T10:59:08.580Z,19.56
2024-05-09T11:00:15.783Z,19.62
2024-05-09T11:01:09.630Z,19.67
2024-05-09T11:02:08.786Z,19.76
2024-05-09T11:03:08.547Z,19.88
2024-05-09T11:04:08.744Z,19.95
2024-05-09T11:05:08.531Z,20.03
2024-05-09T11:06:08.477Z,20.07
2024-05-09T11:07:08.580Z,20.10
2024-05-09T11:08:08.458Z,20.18
2024-05-09T11:09:08.435Z,20.25
2024-05-09T11:10:12.356Z,20.34
2024-05-09T11:11:08.964Z,20.41
2024-05-09T11:12:08.516Z,20.47
2024-05-09T11:13:08.520Z,20.50
2024-05-09T11:14:08.370Z,20.51
2024-05-09T11:15:08.374Z,20.48
2024-05-09T11:16:08.443Z,20.37
2024-05-09T11:17:08.481Z,20.36
2024-05-09T11:18:08.455Z,20.36
2024-05-09T11:19:08.547Z,20.37
2024-05-09T11:20:13.723Z,20.39
2024-05-09T11:21:09.295Z,20.43
2024-05-09T11:22:08.429Z,20.50
2024-05-09T11:23:09.234Z,20.56
2024-05-09T11:24:11.179Z,20.62
2024-05-09T11:25:08.376Z,20.70
2024-05-09T11:26:08.234Z,20.77
2024-05-09T11:27:08.236Z,20.82
2024-05-09T11:28:08.315Z,20.84
2024-05-09T11:29:08.223Z,20.87
2024-05-09T11:30:14.198Z,20.87
2024-05-09T11:31:10.400Z,20.85
2024-05-09T11:32:08.273Z,20.87
2024-05-09T11:33:08.259Z,20.78
2024-05-09T11:34:08.189Z,20.74
2024-05-09T11:35:10.203Z,20.70
2024-05-09T11:36:08.276Z,20.69
2024-05-09T11:37:08.159Z,20.65
2024-05-09T11:38:08.113Z,20.51
2024-05-09T11:39:08.114Z,20.47
2024-05-09T11:40:13.893Z,20.44
2024-05-09T11:41:09.129Z,20.44
2024-05-09T11:42:08.090Z,20.43
2024-05-09T11:43:08.103Z,20.37
2024-05-09T11:44:08.049Z,20.31
2024-05-09T11:45:08.687Z,20.26
2024-05-09T11:46:08.063Z,20.25
2024-05-09T11:47:08.072Z,20.25
2024-05-09T11:48:08.423Z,20.26
2024-05-09T11:49:08.222Z,20.31
2024-05-09T11:50:10.305Z,20.37
2024-05-09T11:51:07.989Z,20.44
2024-05-09T11:52:08.097Z,20.51
2024-05-09T11:53:08.017Z,20.58
2024-05-09T11:54:08.801Z,20.63
2024-05-09T11:55:07.978Z,20.65
2024-05-09T11:56:07.944Z,20.65
2024-05-09T11:57:07.895Z,20.66
2024-05-09T11:58:07.998Z,20.65
2024-05-09T11:59:07.874Z,20.62
2024-05-09T12:00:11.858Z,20.56
2024-05-09T12:01:08.078Z,20.50
2024-05-09T12:02:08.055Z,20.47
2024-05-09T12:03:07.872Z,20.39
2024-05-09T12:04:07.975Z,20.29
2024-05-09T12:05:08.850Z,20.22
2024-05-09T12:06:07.887Z,20.21
2024-05-09T12:07:09.705Z,20.19
2024-05-09T12:08:07.799Z,20.19
2024-05-09T12:09:07.852Z,20.14
2024-05-09T12:10:14.004Z,20.13
2024-05-09T12:11:08.851Z,20.14
2024-05-09T12:12:08.910Z,20.16
2024-05-09T12:13:08.091Z,20.21
2024-05-09T12:14:07.734Z,20.22
2024-05-09T12:15:08.265Z,20.25
2024-05-09T12:16:07.766Z,20.26
2024-05-09T12:17:07.762Z,20.28
2024-05-09T12:18:08.456Z,20.32
2024-05-09T12:19:08.079Z,20.39
2024-05-09T12:20:14.269Z,20.52
2024-05-09T12:21:08.665Z,20.65
2024-05-09T12:22:07.713Z,20.75
2024-05-09T12:23:08.898Z,20.87
2024-05-09T12:24:07.594Z,21.02
2024-05-09T12:25:07.753Z,21.18
2024-05-09T12:26:07.764Z,21.33
2024-05-09T12:27:07.590Z,21.55
2024-05-09T12:28:07.659Z,21.80
2024-05-09T12:29:07.544Z,22.08
2024-05-09T12:30:11.286Z,22.32
2024-05-09T12:31:07.586Z,22.65
2024-05-09T12:32:07.813Z,23.00
2024-05-09T12:33:08.157Z,23.36
2024-05-09T12:34:07.888Z,23.59
2024-05-09T12:35:07.785Z,23.74
2024-05-09T12:36:07.511Z,23.87
2024-05-09T12:37:07.503Z,24.05
2024-05-09T12:38:07.498Z,24.29
2024-05-09T12:39:07.442Z,24.53
2024-05-09T12:40:15.808Z,24.81
2024-05-09T12:41:08.518Z,25.06
2024-05-09T12:42:07.496Z,25.26
2024-05-09T12:43:08.485Z,25.31
2024-05-09T12:44:07.527Z,25.31
2024-05-09T12:45:07.387Z,25.29
2024-05-09T12:46:07.439Z,25.36
2024-05-09T12:47:07.650Z,25.50
2024-05-09T12:48:07.719Z,25.68
2024-05-09T12:49:07.607Z,25.84
2024-05-09T12:50:13.424Z,25.96
2024-05-09T12:51:08.313Z,25.88
2024-05-09T12:52:07.473Z,25.91
2024-05-09T12:53:07.796Z,25.84
2024-05-09T12:54:08.260Z,25.85
2024-05-09T12:55:07.412Z,25.77
2024-05-09T12:56:09.494Z,25.60
2024-05-09T12:57:07.497Z,25.43
2024-05-09T12:58:07.482Z,25.25
2024-05-09T12:59:07.229Z,25.06
2024-05-09T13:00:14.213Z,24.84
2024-05-09T13:01:08.341Z,24.61
2024-05-09T13:02:07.518Z,24.43
2024-05-09T13:03:07.330Z,24.20
2024-05-09T13:04:08.440Z,24.03
2024-05-09T13:05:07.415Z,23.83
2024-05-09T13:06:07.185Z,23.65